Time;durP1;ratioP1;P1;durP2;ratioP2;P2;SDS_P1;SDS_P2;PMS_P1;PMS_P2;Temp;Humidity;BMP_temperature;BMP_pressure;BME280_temperature;BME280_humidity;BME280_pressure;Samples;Min_cycle;Max_cycle;Signal;HPM_P1;HPM_P2
2022/12/28 00:00:46;;;;;;;;;;;6.00;99.90;;;;;;5096170;28;19922;-62
2022/12/28 00:03:12;;;;;;;;;;;6.00;99.90;;;;;;5096078;28;19912;-63
2022/12/28 00:05:37;;;;;;;;;;;6.10;99.90;;;;;;5096133;28;20379;-63
2022/12/28 00:08:03;;;;;;;;;;;6.20;99.90;;;;;;5096040;28;19908;-63
2022/12/28 00:10:29;;;;;;;;;;;6.10;99.90;;;;;;5095998;28;19953;-63
2022/12/28 00:12:54;;;;;;;;;;;6.10;99.90;;;;;;5096054;28;19916;-63
2022/12/28 00:15:20;;;;;;;;;;;6.00;99.90;;;;;;5095874;28;19915;-63
2022/12/28 00:17:45;;;;;;;;;;;6.00;99.90;;;;;;5096150;28;19908;-63
2022/12/28 00:20:11;;;;;;;;;;;6.00;99.90;;;;;;5095945;28;19944;-63
2022/12/28 00:22:36;;;;;;;;;;;6.00;99.90;;;;;;5077413;28;20378;-62
2022/12/28 00:25:02;;;;;;;;;;;6.10;99.90;;;;;;5095688;28;19915;-63
2022/12/28 00:27:27;;;;;;;;;;;6.10;99.90;;;;;;5095629;28;19912;-63
2022/12/28 00:29:53;;;;;;;;;;;6.10;99.90;;;;;;5095870;28;19944;-63
2022/12/28 00:32:18;;;;;;;;;;;6.00;99.90;;;;;;5095573;28;19939;-62
2022/12/28 00:34:44;;;;;;;;;;;6.10;99.90;;;;;;5095538;28;19934;-63
2022/12/28 00:37:09;;;;;;;;;;;6.10;99.90;;;;;;5095481;28;19958;-62
2022/12/28 00:39:35;;;;;;;;;;;6.10;99.90;;;;;;5095448;28;19957;-63
2022/12/28 00:42:00;;;;;;;;;;;6.10;99.90;;;;;;5095587;28;20011;-63
2022/12/28 00:44:25;;;;;;;;;;;6.10;99.90;;;;;;5095367;28;19908;-62
2022/12/28 00:46:51;;;;;;;;;;;6.20;99.90;;;;;;5096020;28;20353;-62
2022/12/28 00:49:16;;;;;;;;;;;6.10;99.90;;;;;;5095490;28;19908;-62
2022/12/28 00:51:42;;;;;;;;;;;6.20;99.90;;;;;;5095461;28;20042;-63
2022/12/28 00:54:07;;;;;;;;;;;6.10;99.90;;;;;;5095179;28;19961;-62
2022/12/28 00:56:33;;;;;;;;;;;6.20;99.90;;;;;;5095357;28;19915;-62
2022/12/28 00:58:58;;;;;;;;;;;6.20;99.90;;;;;;5095115;28;19908;-63
2022/12/28 01:01:25;;;;;;;;;;;6.30;99.90;;;;;;5076918;28;20444;-62
2022/12/28 01:03:50;;;;;;;;;;;6.30;99.90;;;;;;5094929;28;20007;-62
2022/12/28 01:06:17;;;;;;;;;;;6.30;99.90;;;;;;5095190;28;19959;-62
2022/12/28 01:08:43;;;;;;;;;;;6.40;99.90;;;;;;5094863;28;20254;-63
2022/12/28 01:11:17;;;;;;;;;;;6.40;99.90;;;;;;5095079;28;19930;-62
2022/12/28 01:13:42;;;;;;;;;;;6.50;99.90;;;;;;5094763;28;19930;-62
2022/12/28 01:16:10;;;;;;;;;;;6.60;99.90;;;;;;5094672;28;19915;-63
2022/12/28 01:18:36;;;;;;;;;;;6.60;99.90;;;;;;5094664;28;19931;-62
2022/12/28 01:21:06;;;;;;;;;;;6.60;99.90;;;;;;5094378;28;19908;-63
2022/12/28 01:23:32;;;;;;;;;;;6.60;99.90;;;;;;5094583;28;20270;-63
2022/12/28 01:26:00;;;;;;;;;;;6.60;99.90;;;;;;5094539;28;19919;-64
2022/12/28 01:28:27;;;;;;;;;;;6.60;99.90;;;;;;5094518;28;20262;-63
2022/12/28 01:30:52;;;;;;;;;;;6.50;99.90;;;;;;5094210;28;19943;-63
2022/12/28 01:33:18;;;;;;;;;;;6.50;99.90;;;;;;5094404;28;19936;-62
2022/12/28 01:35:43;;;;;;;;;;;6.50;99.90;;;;;;5094352;28;19908;-63
2022/12/28 01:38:08;;;;;;;;;;;6.40;99.90;;;;;;5094378;28;19993;-63
2022/12/28 01:40:34;;;;;;;;;;;6.40;99.90;;;;;;5094551;28;19908;-63
2022/12/28 01:42:59;;;;;;;;;;;6.40;99.90;;;;;;5076215;28;19912;-63
2022/12/28 01:45:25;;;;;;;;;;;6.40;99.90;;;;;;5094195;28;19912;-62
2022/12/28 01:47:52;;;;;;;;;;;6.40;99.90;;;;;;5094269;28;19909;-62
2022/12/28 01:50:21;;;;;;;;;;;6.40;99.90;;;;;;5094444;28;20010;-62
2022/12/28 01:52:49;;;;;;;;;;;6.50;99.90;;;;;;5094379;28;19908;-62
2022/12/28 01:55:19;;;;;;;;;;;6.50;99.90;;;;;;5094316;28;19908;-62
2022/12/28 01:57:47;;;;;;;;;;;6.50;99.90;;;;;;5094093;28;19930;-62
2022/12/28 02:00:13;;;;;;;;;;;6.50;99.90;;;;;;5093994;28;19999;-63
2022/12/28 02:02:41;;;;;;;;;;;6.40;99.90;;;;;;5093877;28;19916;-62
2022/12/28 02:05:07;;;;;;;;;;;6.50;99.90;;;;;;5093976;28;20322;-63
2022/12/28 02:07:39;;;;;;;;;;;6.40;99.90;;;;;;5094146;28;19990;-63
2022/12/28 02:10:04;;;;;;;;;;;6.40;99.90;;;;;;5093916;28;19909;-62
2022/12/28 02:12:31;;;;;;;;;;;6.50;99.90;;;;;;5093871;28;19931;-62
2022/12/28 02:14:56;;;;;;;;;;;6.40;99.90;;;;;;5093882;28;19908;-62
2022/12/28 02:17:21;;;;;;;;;;;6.40;99.90;;;;;;5094073;28;19916;-62
2022/12/28 02:19:47;;;;;;;;;;;6.40;99.90;;;;;;5093805;28;19991;-62
2022/12/28 02:22:20;;;;;;;;;;;6.40;99.90;;;;;;5093407;28;19943;-62
2022/12/28 02:25:05;;;;;;;;;;;6.40;99.90;;;;;;5093686;28;19908;-62
2022/12/28 02:30:12;;;;;;;;;;;6.50;99.90;;;;;;5091267;27;19913;-62
2022/12/28 02:32:58;;;;;;;;;;;6.50;99.90;;;;;;5091489;28;20388;-62
2022/12/28 02:35:29;;;;;;;;;;;6.40;99.90;;;;;;5091064;28;19959;-62
2022/12/28 02:38:00;;;;;;;;;;;6.40;99.90;;;;;;5091044;28;19914;-62
2022/12/28 02:40:29;;;;;;;;;;;6.40;99.90;;;;;;5091062;28;19908;-62
2022/12/28 02:42:54;;;;;;;;;;;6.60;99.90;;;;;;5091270;28;20374;-62
2022/12/28 02:51:29;;;;;;;;;;;6.60;99.90;;;;;;5090691;28;19909;-61
2022/12/28 02:54:02;;;;;;;;;;;6.70;99.90;;;;;;5090961;28;20348;-62
2022/12/28 02:56:36;;;;;;;;;;;6.70;99.90;;;;;;5090752;28;20281;-62
2022/12/28 02:59:10;;;;;;;;;;;6.70;99.90;;;;;;5090671;28;19919;-61
2022/12/28 03:01:56;;;;;;;;;;;6.80;99.90;;;;;;5090859;28;19909;-62
2022/12/28 03:04:41;;;;;;;;;;;6.80;99.90;;;;;;5090615;28;20382;-62
2022/12/28 03:10:22;;;;;;;;;;;6.90;99.90;;;;;;5090208;28;20361;-62
2022/12/28 03:12:52;;;;;;;;;;;6.90;99.90;;;;;;5090411;28;19908;-62
2022/12/28 03:15:28;;;;;;;;;;;7.00;99.90;;;;;;5090377;28;19915;-62
2022/12/28 03:31:48;;;;;;;;;;;7.00;99.90;;;;;;5110197;28;20285;-62
2022/12/28 03:34:14;;;;;;;;;;;7.10;99.90;;;;;;5110614;28;19909;-62
2022/12/28 03:36:43;;;;;;;;;;;7.10;99.90;;;;;;5110551;28;19951;-62
2022/12/28 03:39:13;;;;;;;;;;;7.20;99.90;;;;;;5110243;28;20400;-62
2022/12/28 03:41:48;;;;;;;;;;;7.20;99.90;;;;;;5096275;28;19958;-62
2022/12/28 03:44:22;;;;;;;;;;;7.30;99.90;;;;;;5096557;28;19908;-62
2022/12/28 03:46:51;;;;;;;;;;;7.20;99.90;;;;;;5096527;28;19908;-62
2022/12/28 03:49:16;;;;;;;;;;;7.30;99.90;;;;;;5096732;28;19955;-62
2022/12/28 03:51:45;;;;;;;;;;;7.30;99.90;;;;;;5096747;28;20381;-62
2022/12/28 03:54:13;;;;;;;;;;;7.30;99.90;;;;;;5096687;28;19908;-62
2022/12/28 03:56:44;;;;;;;;;;;7.30;99.90;;;;;;5096358;28;19908;-62
2022/12/28 03:59:09;;;;;;;;;;;7.40;99.90;;;;;;5096352;28;20373;-63
2022/12/28 04:01:34;;;;;;;;;;;7.40;99.90;;;;;;5096251;28;19915;-62
2022/12/28 04:04:00;;;;;;;;;;;7.40;99.90;;;;;;5096287;28;19908;-64
2022/12/28 04:06:25;;;;;;;;;;;7.40;99.90;;;;;;5096172;28;20456;-63
2022/12/28 04:08:51;;;;;;;;;;;7.40;99.90;;;;;;5096002;28;19935;-62
2022/12/28 04:11:16;;;;;;;;;;;7.40;99.90;;;;;;5096056;28;19991;-62
2022/12/28 04:13:42;;;;;;;;;;;7.40;99.90;;;;;;5096034;28;19919;-62
2022/12/28 04:16:09;;;;;;;;;;;7.50;99.90;;;;;;5096004;28;20057;-63
2022/12/28 04:18:34;;;;;;;;;;;7.50;99.90;;;;;;5096234;28;19908;-62
2022/12/28 04:21:00;;;;;;;;;;;7.50;99.90;;;;;;5095867;28;20385;-62
2022/12/28 04:23:25;;;;;;;;;;;7.50;99.90;;;;;;5095851;28;20027;-62
2022/12/28 04:25:55;;;;;;;;;;;7.50;99.90;;;;;;5077622;28;19908;-62
2022/12/28 04:28:20;;;;;;;;;;;7.50;99.90;;;;;;5095527;28;19935;-62
2022/12/28 04:30:45;;;;;;;;;;;7.50;99.90;;;;;;5095672;28;19912;-62
2022/12/28 04:33:11;;;;;;;;;;;7.40;99.90;;;;;;5095643;28;19922;-62
2022/12/28 04:35:36;;;;;;;;;;;7.40;99.90;;;;;;5095573;28;19915;-62
2022/12/28 04:38:02;;;;;;;;;;;7.40;99.90;;;;;;5095618;28;20486;-62
2022/12/28 04:40:27;;;;;;;;;;;7.30;99.90;;;;;;5095506;28;20282;-62
2022/12/28 04:42:53;;;;;;;;;;;7.40;99.90;;;;;;5095739;28;19995;-65
2022/12/28 04:45:18;;;;;;;;;;;7.40;99.90;;;;;;5095424;28;19909;-62
2022/12/28 04:47:44;;;;;;;;;;;7.40;99.90;;;;;;5095609;28;19914;-62
2022/12/28 04:50:09;;;;;;;;;;;7.50;99.90;;;;;;5095340;28;20366;-62
2022/12/28 04:52:34;;;;;;;;;;;7.50;99.90;;;;;;5094320;28;19944;-62
2022/12/28 04:55:00;;;;;;;;;;;7.50;99.90;;;;;;5095517;28;19939;-62
2022/12/28 04:57:25;;;;;;;;;;;7.50;99.90;;;;;;5095490;28;19908;-62
2022/12/28 04:59:51;;;;;;;;;;;7.50;99.90;;;;;;5060562;28;19916;-62
2022/12/28 05:02:16;;;;;;;;;;;7.50;99.90;;;;;;5095073;28;19977;-62
2022/12/28 05:04:42;;;;;;;;;;;7.50;99.90;;;;;;5060378;28;19951;-62
2022/12/28 05:07:07;;;;;;;;;;;7.60;99.90;;;;;;5094988;28;20370;-62
2022/12/28 05:09:33;;;;;;;;;;;7.60;99.90;;;;;;5095114;28;20350;-62
2022/12/28 05:11:58;;;;;;;;;;;7.70;99.90;;;;;;5094912;28;19919;-62
2022/12/28 05:14:23;;;;;;;;;;;7.60;99.90;;;;;;5094838;28;19908;-62
2022/12/28 05:16:50;;;;;;;;;;;7.60;99.90;;;;;;5094813;28;19908;-62
2022/12/28 05:19:16;;;;;;;;;;;7.60;99.90;;;;;;5094999;28;19909;-62
2022/12/28 05:21:41;;;;;;;;;;;7.50;99.90;;;;;;5094742;28;20029;-63
2022/12/28 05:24:07;;;;;;;;;;;7.50;99.90;;;;;;5094667;28;19991;-63
2022/12/28 05:26:33;;;;;;;;;;;7.50;99.90;;;;;;5094651;28;19919;-63
2022/12/28 05:28:59;;;;;;;;;;;7.50;99.90;;;;;;5094444;28;19931;-63
2022/12/28 05:31:25;;;;;;;;;;;7.50;99.90;;;;;;5094782;28;19908;-63
2022/12/28 05:33:50;;;;;;;;;;;7.50;99.90;;;;;;5094733;28;19908;-63
2022/12/28 05:36:17;;;;;;;;;;;7.50;99.90;;;;;;5094450;28;19908;-62
2022/12/28 05:38:43;;;;;;;;;;;7.40;99.90;;;;;;5094381;28;20002;-62
2022/12/28 05:41:14;;;;;;;;;;;7.40;99.90;;;;;;5094664;28;19951;-63
2022/12/28 05:43:40;;;;;;;;;;;7.40;99.90;;;;;;5094334;28;20413;-62
2022/12/28 05:46:06;;;;;;;;;;;7.30;99.90;;;;;;5094282;28;19973;-62
2022/12/28 05:48:32;;;;;;;;;;;7.30;99.90;;;;;;5094227;28;20405;-64
2022/12/28 05:50:59;;;;;;;;;;;7.40;99.90;;;;;;5094526;28;19908;-63
2022/12/28 05:53:25;;;;;;;;;;;7.40;99.90;;;;;;5094170;28;19930;-62
2022/12/28 05:55:50;;;;;;;;;;;7.30;99.90;;;;;;5094163;28;19908;-63
2022/12/28 05:58:15;;;;;;;;;;;7.40;99.90;;;;;;5094115;28;19908;-63
2022/12/28 06:00:41;;;;;;;;;;;7.40;99.90;;;;;;5094336;28;20357;-62
2022/12/28 06:03:06;;;;;;;;;;;7.40;99.90;;;;;;5093773;28;20002;-63
2022/12/28 06:05:32;;;;;;;;;;;7.30;99.90;;;;;;5093973;28;19916;-63
2022/12/28 06:07:58;;;;;;;;;;;7.30;99.90;;;;;;5094191;28;19908;-63
2022/12/28 06:10:23;;;;;;;;;;;7.30;99.90;;;;;;5075949;28;19909;-63
2022/12/28 06:12:49;;;;;;;;;;;7.30;99.90;;;;;;5093956;28;19912;-62
2022/12/28 06:15:14;;;;;;;;;;;7.30;99.90;;;;;;5093905;28;20400;-62
2022/12/28 06:17:40;;;;;;;;;;;7.30;99.90;;;;;;5094131;28;19908;-62
2022/12/28 06:20:05;;;;;;;;;;;7.40;99.90;;;;;;5093803;28;19909;-63
2022/12/28 06:22:31;;;;;;;;;;;7.40;99.90;;;;;;5093829;28;19908;-63
2022/12/28 06:24:56;;;;;;;;;;;7.40;99.90;;;;;;5093749;28;19931;-62
2022/12/28 06:27:22;;;;;;;;;;;7.40;99.90;;;;;;5093749;28;19912;-62
2022/12/28 06:29:47;;;;;;;;;;;7.40;99.90;;;;;;5093514;28;19920;-62
2022/12/28 06:32:13;;;;;;;;;;;7.40;99.90;;;;;;5093666;28;19908;-62
2022/12/28 06:34:38;;;;;;;;;;;7.40;99.90;;;;;;5093712;28;20369;-63
2022/12/28 06:37:03;;;;;;;;;;;7.40;99.90;;;;;;5093679;28;20504;-63
2022/12/28 06:39:29;;;;;;;;;;;7.40;99.90;;;;;;5093560;28;20340;-63
2022/12/28 06:41:54;;;;;;;;;;;7.40;99.90;;;;;;5093593;28;19908;-62
2022/12/28 06:44:20;;;;;;;;;;;7.40;99.90;;;;;;5075435;28;19999;-63
2022/12/28 06:46:46;;;;;;;;;;;7.30;99.90;;;;;;5093548;28;19954;-62
2022/12/28 06:49:11;;;;;;;;;;;7.30;99.90;;;;;;5093497;28;19912;-62
2022/12/28 06:51:40;;;;;;;;;;;7.30;99.90;;;;;;5093492;28;19915;-63
2022/12/28 06:54:06;;;;;;;;;;;7.20;99.90;;;;;;5093468;28;19991;-62
2022/12/28 06:56:33;;;;;;;;;;;7.20;99.90;;;;;;5093523;28;19958;-62
2022/12/28 06:58:58;;;;;;;;;;;7.20;99.90;;;;;;5093407;28;19962;-62
2022/12/28 07:01:39;;;;;;;;;;;7.20;99.90;;;;;;5093407;28;19908;-62
2022/12/28 07:04:05;;;;;;;;;;;7.20;99.90;;;;;;5093400;28;19909;-62
2022/12/28 07:06:34;;;;;;;;;;;7.20;99.90;;;;;;5075217;28;20282;-62
2022/12/28 07:09:00;;;;;;;;;;;7.20;99.90;;;;;;5093290;28;19941;-62
2022/12/28 07:11:26;;;;;;;;;;;7.30;99.90;;;;;;5093283;28;19908;-62
2022/12/28 07:13:51;;;;;;;;;;;7.30;99.90;;;;;;5075243;28;19909;-62
2022/12/28 07:16:18;;;;;;;;;;;7.30;99.90;;;;;;5096103;28;19908;-62
2022/12/28 07:18:44;;;;;;;;;;;7.30;99.90;;;;;;5097312;28;19908;-62
2022/12/28 07:21:11;;;;;;;;;;;7.30;99.90;;;;;;5097073;28;19908;-62
2022/12/28 07:23:37;;;;;;;;;;;7.20;99.90;;;;;;5097047;28;19914;-62
2022/12/28 07:26:05;;;;;;;;;;;7.30;99.90;;;;;;5096894;28;20350;-62
2022/12/28 07:28:30;;;;;;;;;;;7.30;99.90;;;;;;5096835;28;20370;-62
2022/12/28 07:30:56;;;;;;;;;;;7.30;99.90;;;;;;5078808;28;19908;-62
2022/12/28 07:33:21;;;;;;;;;;;7.30;99.90;;;;;;5096873;28;20285;-63
2022/12/28 07:35:47;;;;;;;;;;;7.30;99.90;;;;;;5096774;28;19908;-63
2022/12/28 07:38:12;;;;;;;;;;;7.30;99.90;;;;;;5096697;28;19912;-62
2022/12/28 07:40:38;;;;;;;;;;;7.30;99.90;;;;;;5096969;28;19915;-62
2022/12/28 07:43:03;;;;;;;;;;;7.30;99.90;;;;;;5096886;28;20361;-63
2022/12/28 07:45:29;;;;;;;;;;;;;;;;;;5096601;28;19923;-62
2022/12/28 07:47:54;;;;;;;;;;;7.40;99.90;;;;;;5096444;28;20381;-62
2022/12/28 07:50:20;;;;;;;;;;;7.30;99.90;;;;;;5096513;28;19962;-62
2022/12/28 07:52:45;;;;;;;;;;;7.40;99.90;;;;;;5096677;28;19914;-62
2022/12/28 07:55:12;;;;;;;;;;;7.30;99.90;;;;;;5096442;28;19908;-62
2022/12/28 07:57:37;;;;;;;;;;;7.30;99.90;;;;;;5096638;28;19958;-63
2022/12/28 08:00:03;;;;;;;;;;;7.40;99.90;;;;;;5096293;28;20295;-62
2022/12/28 08:02:29;;;;;;;;;;;7.40;99.90;;;;;;5096214;28;19998;-62
2022/12/28 08:04:54;;;;;;;;;;;7.40;99.90;;;;;;5096518;28;20011;-62
2022/12/28 08:07:19;;;;;;;;;;;7.40;99.90;;;;;;5096216;28;19915;-63
2022/12/28 08:09:45;;;;;;;;;;;7.40;99.90;;;;;;5096288;28;19912;-63
2022/12/28 08:12:10;;;;;;;;;;;7.40;99.90;;;;;;5096078;28;19908;-63
2022/12/28 08:14:37;;;;;;;;;;;7.40;99.90;;;;;;5095998;28;19908;-63
2022/12/28 08:17:02;;;;;;;;;;;7.40;99.90;;;;;;5096233;28;19933;-63
2022/12/28 08:19:27;;;;;;;;;;;7.40;99.90;;;;;;5096237;28;19908;-63
2022/12/28 08:21:53;;;;;;;;;;;7.40;99.90;;;;;;5096119;28;20366;-63
2022/12/28 08:24:19;;;;;;;;;;;7.40;99.90;;;;;;5095849;28;19908;-63
2022/12/28 08:26:45;;;;;;;;;;;7.50;99.90;;;;;;5095949;28;19908;-63
2022/12/28 08:29:12;;;;;;;;;;;7.40;99.90;;;;;;5077439;28;19968;-63
2022/12/28 08:31:39;;;;;;;;;;;7.40;99.90;;;;;;5095769;28;19911;-63
2022/12/28 08:34:05;;;;;;;;;;;7.40;99.90;;;;;;5095914;28;19908;-64
2022/12/28 08:36:31;;;;;;;;;;;7.50;99.90;;;;;;5095836;28;19915;-63
2022/12/28 08:38:58;;;;;;;;;;;7.40;99.90;;;;;;5095818;28;19908;-63
2022/12/28 08:41:24;;;;;;;;;;;7.50;99.90;;;;;;5095503;28;20443;-63
2022/12/28 08:43:50;;;;;;;;;;;7.50;99.90;;;;;;5095748;28;19995;-63
2022/12/28 08:46:17;;;;;;;;;;;7.50;99.90;;;;;;5095363;28;19908;-63
2022/12/28 08:48:43;;;;;;;;;;;7.50;99.90;;;;;;5095559;28;20353;-63
2022/12/28 08:51:12;;;;;;;;;;;7.50;99.90;;;;;;5095298;28;19908;-63
2022/12/28 08:53:37;;;;;;;;;;;7.50;99.90;;;;;;5077181;28;20289;-63
2022/12/28 08:56:05;;;;;;;;;;;7.50;99.90;;;;;;5095449;28;19912;-63
2022/12/28 08:58:30;;;;;;;;;;;7.50;99.90;;;;;;5095395;28;19908;-63
2022/12/28 09:00:56;;;;;;;;;;;7.50;99.90;;;;;;5095102;28;19931;-63
2022/12/28 09:03:21;;;;;;;;;;;7.50;99.90;;;;;;5076995;28;20003;-63
2022/12/28 09:05:47;;;;;;;;;;;7.60;99.90;;;;;;5095011;28;19956;-63
2022/12/28 09:08:13;;;;;;;;;;;7.60;99.90;;;;;;5095097;28;19912;-63
2022/12/28 09:10:38;;;;;;;;;;;7.60;99.90;;;;;;5076871;28;19938;-63
2022/12/28 09:13:04;;;;;;;;;;;7.60;99.90;;;;;;5094824;28;20380;-63
2022/12/28 09:15:29;;;;;;;;;;;7.60;99.90;;;;;;5094922;28;19908;-64
2022/12/28 09:17:54;;;;;;;;;;;7.70;99.90;;;;;;5094648;28;19912;-63
2022/12/28 09:20:20;;;;;;;;;;;7.70;99.90;;;;;;5095016;28;19915;-63
2022/12/28 09:22:45;;;;;;;;;;;7.70;99.90;;;;;;5094736;28;19915;-63
2022/12/28 09:25:11;;;;;;;;;;;7.70;99.90;;;;;;5094863;28;19915;-64
2022/12/28 09:27:36;;;;;;;;;;;7.70;99.90;;;;;;5094862;28;19999;-64
2022/12/28 09:30:02;;;;;;;;;;;7.70;99.90;;;;;;5094455;28;20365;-63
2022/12/28 09:32:27;;;;;;;;;;;7.70;99.90;;;;;;5094524;28;19915;-63
2022/12/28 09:34:53;;;;;;;;;;;7.80;99.90;;;;;;5094404;28;20013;-64
2022/12/28 09:37:18;;;;;;;;;;;7.80;99.90;;;;;;5094154;28;20372;-64
2022/12/28 09:39:44;;;;;;;;;;;7.80;99.90;;;;;;5093895;28;19912;-64
2022/12/28 09:42:13;;;;;;;;;;;7.80;99.90;;;;;;5094330;28;19950;-64
2022/12/28 09:44:59;;;;;;;;;;;7.80;99.90;;;;;;5094310;28;20393;-64
2022/12/28 09:47:46;;;;;;;;;;;7.80;99.90;;;;;;5094222;28;19954;-64
2022/12/28 09:53:14;;;;;;;;;;;7.90;99.90;;;;;;5071035;28;19920;-63
2022/12/28 09:55:40;;;;;;;;;;;7.90;99.90;;;;;;5070862;28;19919;-63
2022/12/28 09:58:11;;;;;;;;;;;7.90;99.90;;;;;;5071159;28;20269;-64
2022/12/28 10:00:40;;;;;;;;;;;8.00;99.90;;;;;;5070754;28;19916;-64
2022/12/28 10:03:13;;;;;;;;;;;8.00;99.90;;;;;;5069499;28;19991;-63
2022/12/28 10:05:39;;;;;;;;;;;8.00;99.90;;;;;;5070768;28;19908;-64
2022/12/28 10:08:04;;;;;;;;;;;8.00;99.90;;;;;;5070596;28;19957;-63
2022/12/28 10:10:30;;;;;;;;;;;8.10;99.90;;;;;;5070531;28;20008;-63
2022/12/28 10:12:57;;;;;;;;;;;8.10;99.90;;;;;;5070573;28;19909;-63
2022/12/28 10:15:26;;;;;;;;;;;8.10;99.90;;;;;;5070529;28;20007;-63
2022/12/28 10:17:51;;;;;;;;;;;8.10;99.90;;;;;;5070723;28;20370;-63
2022/12/28 10:20:18;;;;;;;;;;;8.10;99.90;;;;;;5070423;28;19916;-63
2022/12/28 10:22:47;;;;;;;;;;;8.10;99.90;;;;;;5070459;28;20358;-63
2022/12/28 10:25:18;;;;;;;;;;;8.10;99.90;;;;;;5070299;28;20325;-63
2022/12/28 10:27:43;;;;;;;;;;;8.10;99.90;;;;;;5070280;28;20274;-63
2022/12/28 10:30:17;;;;;;;;;;;8.20;99.90;;;;;;5070216;28;19915;-63
2022/12/28 10:32:47;;;;;;;;;;;8.20;99.90;;;;;;5069851;28;20292;-63
2022/12/28 10:35:21;;;;;;;;;;;8.20;99.90;;;;;;5070266;28;19959;-63
2022/12/28 10:37:46;;;;;;;;;;;8.20;99.90;;;;;;5070276;28;20283;-63
2022/12/28 10:40:28;;;;;;;;;;;8.30;99.90;;;;;;5069935;28;19916;-63
2022/12/28 10:42:54;;;;;;;;;;;8.30;99.90;;;;;;5069892;28;20390;-63
2022/12/28 10:45:26;;;;;;;;;;;8.30;99.90;;;;;;5070132;28;19908;-63
2022/12/28 10:47:53;;;;;;;;;;;8.50;99.90;;;;;;5069814;28;20290;-63
2022/12/28 10:50:38;;;;;;;;;;;8.50;99.90;;;;;;5069927;28;19916;-63
2022/12/28 10:53:04;;;;;;;;;;;8.60;99.90;;;;;;5069463;28;19924;-63
2022/12/28 10:55:31;;;;;;;;;;;8.70;99.90;;;;;;5069649;28;19947;-63
2022/12/28 10:58:16;;;;;;;;;;;8.80;99.90;;;;;;5085250;28;19915;-63
2022/12/28 11:00:51;;;;;;;;;;;8.80;99.90;;;;;;5069614;28;20298;-63
2022/12/28 11:03:17;;;;;;;;;;;8.90;99.90;;;;;;5061580;28;19909;-63
2022/12/28 11:05:43;;;;;;;;;;;8.90;99.90;;;;;;5056548;28;19958;-63
2022/12/28 11:08:11;;;;;;;;;;;9.00;99.90;;;;;;5056477;28;20375;-63
2022/12/28 11:10:38;;;;;;;;;;;9.00;99.90;;;;;;5056047;28;19909;-64
2022/12/28 11:13:08;;;;;;;;;;;9.00;99.90;;;;;;5056306;28;19955;-63
2022/12/28 11:15:34;;;;;;;;;;;9.00;99.90;;;;;;5056242;28;19912;-63
2022/12/28 11:18:16;;;;;;;;;;;9.00;99.90;;;;;;5056105;28;19963;-63
2022/12/28 11:20:44;;;;;;;;;;;9.00;99.90;;;;;;5055878;28;19909;-63
2022/12/28 11:23:16;;;;;;;;;;;9.10;99.90;;;;;;5056202;28;19940;-63
2022/12/28 11:25:41;;;;;;;;;;;9.10;99.90;;;;;;5055886;28;19963;-63
2022/12/28 11:28:16;;;;;;;;;;;9.10;99.90;;;;;;5054656;28;19909;-65
2022/12/28 11:30:43;;;;;;;;;;;9.10;99.90;;;;;;5055827;28;20379;-63
2022/12/28 11:33:26;;;;;;;;;;;9.10;99.90;;;;;;5055755;28;20003;-64
2022/12/28 11:35:53;;;;;;;;;;;9.10;99.90;;;;;;5055998;28;20371;-62
2022/12/28 11:38:39;;;;;;;;;;;9.10;99.90;;;;;;5055735;28;19909;-63
2022/12/28 11:41:04;;;;;;;;;;;9.20;99.90;;;;;;5055556;28;20414;-63
2022/12/28 11:43:38;;;;;;;;;;;9.20;99.90;;;;;;5055570;28;19916;-63
2022/12/28 11:46:21;;;;;;;;;;;9.20;99.90;;;;;;5055567;28;19930;-63
2022/12/28 11:49:03;;;;;;;;;;;9.20;99.90;;;;;;5055407;28;19909;-63
2022/12/28 11:51:29;;;;;;;;;;;9.20;99.90;;;;;;5063922;28;19920;-63
2022/12/28 11:53:57;;;;;;;;;;;9.20;99.90;;;;;;5075683;28;19915;-63
2022/12/28 11:56:24;;;;;;;;;;;9.20;99.90;;;;;;5075635;28;20370;-64
2022/12/28 12:01:40;;;;;;;;;;;9.30;99.90;;;;;;5091377;28;19913;-63
2022/12/28 12:04:10;;;;;;;;;;;9.30;99.90;;;;;;5091441;28;20427;-63
2022/12/28 12:06:47;;;;;;;;;;;9.30;99.90;;;;;;5091385;28;20289;-63
2022/12/28 12:09:22;;;;;;;;;;;9.30;99.90;;;;;;5091190;28;19915;-63
2022/12/28 12:11:49;;;;;;;;;;;9.40;99.90;;;;;;5091280;28;20289;-63
2022/12/28 12:14:15;;;;;;;;;;;;;;;;;;5090992;28;19955;-63
2022/12/28 12:16:49;;;;;;;;;;;9.40;99.90;;;;;;5090853;28;19947;-63
2022/12/28 12:19:21;;;;;;;;;;;9.40;99.90;;;;;;5090745;28;20366;-63
2022/12/28 12:21:54;;;;;;;;;;;9.40;99.90;;;;;;5089499;28;19944;-63
2022/12/28 12:24:25;;;;;;;;;;;9.40;99.90;;;;;;5090748;28;19951;-63
2022/12/28 12:26:54;;;;;;;;;;;9.40;99.90;;;;;;5090722;28;19996;-63
2022/12/28 12:29:35;;;;;;;;;;;9.40;99.90;;;;;;5090660;28;19909;-63
2022/12/28 12:32:03;;;;;;;;;;;9.40;99.90;;;;;;5090850;28;20322;-63
2022/12/28 12:34:42;;;;;;;;;;;9.50;99.90;;;;;;5090846;28;19987;-63
2022/12/28 12:37:27;;;;;;;;;;;9.50;99.90;;;;;;5090537;28;19914;-63
2022/12/28 12:40:11;;;;;;;;;;;9.50;99.90;;;;;;5090517;28;19935;-63
2022/12/28 12:42:53;;;;;;;;;;;9.60;99.90;;;;;;5090506;28;19935;-63
2022/12/28 12:45:32;;;;;;;;;;;9.50;99.90;;;;;;5090650;28;19915;-63
2022/12/28 12:48:15;;;;;;;;;;;9.60;99.90;;;;;;5090244;28;19915;-63
2022/12/28 12:51:03;;;;;;;;;;;9.60;99.90;;;;;;5090517;28;19909;-63
2022/12/28 12:53:40;;;;;;;;;;;9.60;99.90;;;;;;5090197;28;20337;-63
2022/12/28 12:56:25;;;;;;;;;;;9.60;99.90;;;;;;5090502;28;19931;-64
2022/12/28 12:58:57;;;;;;;;;;;9.60;99.90;;;;;;5090187;28;19908;-63
2022/12/28 13:01:41;;;;;;;;;;;9.50;99.90;;;;;;5108876;28;20044;-64
2022/12/28 13:04:07;;;;;;;;;;;9.60;99.90;;;;;;5092199;28;19912;-63
2022/12/28 13:06:34;;;;;;;;;;;9.60;99.90;;;;;;5110355;28;20372;-63
2022/12/28 13:09:01;;;;;;;;;;;9.60;99.90;;;;;;5110309;28;19908;-63
2022/12/28 13:11:28;;;;;;;;;;;9.70;99.90;;;;;;5105023;28;19919;-63
2022/12/28 13:13:53;;;;;;;;;;;9.70;99.90;;;;;;5096850;28;19915;-63
2022/12/28 13:16:20;;;;;;;;;;;9.70;99.90;;;;;;5096500;28;19909;-63
2022/12/28 13:19:03;;;;;;;;;;;9.70;99.90;;;;;;5096820;28;20368;-63
2022/12/28 13:21:30;;;;;;;;;;;9.70;99.90;;;;;;5096367;28;20323;-62
2022/12/28 13:23:55;;;;;;;;;;;9.70;99.90;;;;;;5078083;28;20060;-63
2022/12/28 13:26:25;;;;;;;;;;;9.70;99.90;;;;;;5096377;28;19909;-63
2022/12/28 13:28:54;;;;;;;;;;;9.70;99.90;;;;;;5096359;28;19998;-62
2022/12/28 13:31:22;;;;;;;;;;;9.70;99.90;;;;;;5096267;28;19908;-63
2022/12/28 13:34:04;;;;;;;;;;;9.70;99.90;;;;;;5096295;28;20285;-62
2022/12/28 13:36:30;;;;;;;;;;;9.70;99.90;;;;;;5096457;28;19915;-63
2022/12/28 13:39:01;;;;;;;;;;;9.70;99.90;;;;;;5061308;28;19912;-63
2022/12/28 13:41:26;;;;;;;;;;;9.70;99.90;;;;;;5096202;28;20032;-63
2022/12/28 13:44:12;;;;;;;;;;;9.70;99.90;;;;;;5096352;28;19908;-63
2022/12/28 13:46:38;;;;;;;;;;;9.70;99.90;;;;;;5095858;28;19909;-63
2022/12/28 13:49:04;;;;;;;;;;;9.70;99.90;;;;;;5096205;28;20357;-63
2022/12/28 13:51:33;;;;;;;;;;;9.60;99.90;;;;;;5096138;28;19958;-63
2022/12/28 13:53:59;;;;;;;;;;;9.60;99.90;;;;;;5095751;28;19915;-63
2022/12/28 13:56:25;;;;;;;;;;;;;;;;;;5095782;28;19915;-63
2022/12/28 13:58:54;;;;;;;;;;;9.60;99.90;;;;;;5095670;28;19908;-63
2022/12/28 14:01:21;;;;;;;;;;;9.50;99.90;;;;;;5095436;28;20404;-63
2022/12/28 14:03:47;;;;;;;;;;;9.60;99.90;;;;;;5077888;28;20411;-63
2022/12/28 14:06:13;;;;;;;;;;;9.50;99.90;;;;;;5095889;28;19908;-63
2022/12/28 14:08:40;;;;;;;;;;;9.50;99.90;;;;;;5095609;28;20007;-63
2022/12/28 14:11:07;;;;;;;;;;;9.50;99.90;;;;;;5095366;28;20139;-63
2022/12/28 14:13:33;;;;;;;;;;;9.50;99.90;;;;;;5095562;28;20362;-63
2022/12/28 14:16:00;;;;;;;;;;;9.50;99.90;;;;;;5095327;28;19909;-63
2022/12/28 14:18:25;;;;;;;;;;;9.50;99.90;;;;;;5095241;28;19908;-63
2022/12/28 14:20:52;;;;;;;;;;;9.50;99.90;;;;;;5095157;28;19912;-63
2022/12/28 14:23:19;;;;;;;;;;;9.50;99.90;;;;;;5094174;28;19908;-63
2022/12/28 14:25:45;;;;;;;;;;;9.50;99.90;;;;;;5095177;28;19948;-63
2022/12/28 14:28:16;;;;;;;;;;;9.50;99.90;;;;;;5095029;28;19908;-63
2022/12/28 14:30:41;;;;;;;;;;;9.50;99.90;;;;;;5095137;28;20335;-63
2022/12/28 14:33:12;;;;;;;;;;;9.50;99.90;;;;;;5095382;28;19909;-63
2022/12/28 14:35:43;;;;;;;;;;;9.50;99.90;;;;;;5095303;28;19931;-63
2022/12/28 14:38:15;;;;;;;;;;;9.50;99.90;;;;;;5094966;28;19908;-63
2022/12/28 14:40:40;;;;;;;;;;;9.50;99.90;;;;;;5094869;28;19912;-63
2022/12/28 14:43:08;;;;;;;;;;;9.40;99.90;;;;;;5094832;28;19958;-63
2022/12/28 14:45:35;;;;;;;;;;;9.40;99.90;;;;;;5076621;28;19969;-63
2022/12/28 14:48:01;;;;;;;;;;;9.40;99.90;;;;;;5076495;28;19908;-63
2022/12/28 14:50:28;;;;;;;;;;;9.40;99.90;;;;;;5076431;28;19915;-63
2022/12/28 14:53:11;;;;;;;;;;;9.30;99.90;;;;;;5094583;28;19951;-63
2022/12/28 14:55:41;;;;;;;;;;;9.30;99.90;;;;;;5094554;28;19912;-63
2022/12/28 14:58:14;;;;;;;;;;;9.40;99.90;;;;;;5094602;28;19919;-63
2022/12/28 15:00:51;;;;;;;;;;;9.40;99.90;;;;;;5094399;28;19920;-63
2022/12/28 15:03:19;;;;;;;;;;;9.30;99.90;;;;;;5094520;28;20341;-63
2022/12/28 15:05:47;;;;;;;;;;;9.30;99.90;;;;;;5094608;28;19908;-63
2022/12/28 15:08:13;;;;;;;;;;;9.40;99.90;;;;;;5094429;28;19909;-63